createdAt,value
2022-12-04T00:00:40.921Z,100951.38
2022-12-04T00:03:09.303Z,100945.56
2022-12-04T00:05:38.816Z,100951.31
2022-12-04T00:08:07.060Z,100947.47
2022-12-04T00:10:35.292Z,100942.88
2022-12-04T00:13:03.396Z,100941.78
2022-12-04T00:15:31.670Z,100947.94
2022-12-04T00:17:59.790Z,100941.84
2022-12-04T00:20:27.916Z,100942.91
2022-12-04T00:22:57.396Z,100946.94
2022-12-04T00:25:25.501Z,100951.09
2022-12-04T00:27:53.792Z,100941.38
2022-12-04T00:30:22.022Z,100944.25
2022-12-04T00:32:50.118Z,100942.59
2022-12-04T00:35:18.339Z,100949.41
2022-12-04T00:37:46.488Z,100940.50
2022-12-04T00:40:16.205Z,100940.94
2022-12-04T00:42:44.349Z,100938.03
2022-12-04T00:45:12.481Z,100936.84
2022-12-04T00:47:40.597Z,100932.72
2022-12-04T00:50:09.284Z,100933.16
2022-12-04T00:52:37.600Z,100931.03
2022-12-04T00:55:06.041Z,100928.31
2022-12-04T00:57:35.609Z,100927.22
2022-12-04T01:00:04.893Z,100922.66
2022-12-04T01:02:33.031Z,100934.75
2022-12-04T01:05:01.574Z,100929.75
2022-12-04T01:07:29.789Z,100929.38
2022-12-04T01:09:58.064Z,100924.38
2022-12-04T01:12:26.296Z,100926.75
2022-12-04T01:14:55.816Z,100914.34
2022-12-04T01:17:24.556Z,100927.22
2022-12-04T01:19:53.340Z,100923.94
2022-12-04T01:22:21.758Z,100920.03
2022-12-04T01:24:49.935Z,100926.41
2022-12-04T01:27:18.087Z,100929.59
2022-12-04T01:29:46.533Z,100927.28
2022-12-04T01:32:16.086Z,100929.59
2022-12-04T01:34:44.232Z,100930.81
2022-12-04T01:37:12.351Z,100934.75
2022-12-04T01:39:40.439Z,100928.13
2022-12-04T01:42:12.277Z,100938.44
2022-12-04T01:44:42.964Z,100938.22
2022-12-04T01:47:11.373Z,100936.63
2022-12-04T01:49:42.219Z,100933.50
2022-12-04T01:52:13.440Z,100931.69
2022-12-04T01:54:43.397Z,100938.88
2022-12-04T01:57:20.258Z,100937.53
2022-12-04T01:59:51.145Z,100927.97
2022-12-04T02:02:22.170Z,100927.53
2022-12-04T02:04:52.237Z,100933.19
2022-12-04T02:07:20.410Z,100930.13
2022-12-04T02:09:53.906Z,100925.13
2022-12-04T02:12:25.324Z,100924.16
2022-12-04T02:15:01.525Z,100919.63
2022-12-04T02:17:37.544Z,100925.13
2022-12-04T02:20:16.623Z,100911.38
2022-12-04T02:22:54.643Z,100918.78
2022-12-04T02:25:25.669Z,100907.88
2022-12-04T02:28:04.609Z,100907.03
2022-12-04T02:30:37.574Z,100892.81
2022-12-04T02:33:08.380Z,100908.31
2022-12-04T02:35:38.427Z,100902.09
2022-12-04T02:38:11.302Z,100908.25
2022-12-04T02:40:43.912Z,100896.66
2022-12-04T02:43:16.118Z,100906.59
2022-12-04T02:45:46.985Z,100912.41
2022-12-04T02:48:17.392Z,100904.94
2022-12-04T02:50:46.404Z,100902.69
2022-12-04T02:53:17.546Z,100898.19
2022-12-04T02:55:49.307Z,100902.53
2022-12-04T02:58:22.440Z,100898.38
2022-12-04T03:00:51.214Z,100902.69
2022-12-04T03:03:21.349Z,100898.31
2022-12-04T03:05:52.862Z,100895.28
2022-12-04T03:08:23.196Z,100893.97
2022-12-04T03:10:53.744Z,100902.91
2022-12-04T03:13:26.298Z,100900.00
2022-12-04T03:15:58.081Z,100906.66
2022-12-04T03:18:29.048Z,100906.88
2022-12-04T03:21:02.706Z,100912.03
2022-12-04T03:23:32.125Z,100911.66
2022-12-04T03:26:03.743Z,100910.16
2022-12-04T03:28:39.279Z,100915.72
2022-12-04T03:31:09.282Z,100911.59
2022-12-04T03:33:40.030Z,100908.69
2022-12-04T03:36:12.525Z,100914.50
2022-12-04T03:38:43.185Z,100915.41
2022-12-04T03:41:14.983Z,100920.66
2022-12-04T03:43:47.922Z,100912.41
2022-12-04T03:46:19.733Z,100918.84
2022-12-04T03:48:51.471Z,100920.91
2022-12-04T03:51:22.737Z,100920.31
2022-12-04T03:53:53.809Z,100919.00
2022-12-04T03:56:23.669Z,100918.06
2022-12-04T03:58:56.175Z,100919.88
2022-12-04T04:01:28.441Z,100900.44
2022-12-04T04:03:59.484Z,100913.63
2022-12-04T04:06:29.738Z,100905.13
2022-12-04T04:08:59.472Z,100912.44
2022-12-04T04:11:29.811Z,100921.84
2022-12-04T04:14:19.262Z,100905.63
2022-12-04T04:17:08.008Z,100915.41
2022-12-04T04:19:55.490Z,100911.88
2022-12-04T04:22:42.337Z,100908.53
2022-12-04T04:25:12.260Z,100920.56
2022-12-04T04:27:40.896Z,100913.03
2022-12-04T04:30:10.942Z,100911.81
2022-12-04T04:32:40.625Z,100905.63
2022-12-04T04:35:13.949Z,100919.38
2022-12-04T04:37:46.893Z,100927.59
2022-12-04T04:40:18.843Z,100928.34
2022-12-04T04:42:51.423Z,100913.31
2022-12-04T04:45:22.981Z,100921.59
2022-12-04T04:47:55.411Z,100921.69
2022-12-04T04:50:31.252Z,100919.38
2022-12-04T04:53:07.056Z,100919.72
2022-12-04T04:55:36.037Z,100917.78
2022-12-04T04:58:24.655Z,100925.59
2022-12-04T05:01:02.279Z,100918.56
2022-12-04T05:03:36.455Z,100914.00
2022-12-04T05:06:10.516Z,100912.97
2022-12-04T05:08:56.582Z,100906.75
2022-12-04T05:11:24.862Z,100905.56
2022-12-04T05:13:53.009Z,100905.19
2022-12-04T05:16:22.565Z,100901.22
2022-12-04T05:19:04.698Z,100899.34
2022-12-04T05:21:34.022Z,100899.44
2022-12-04T05:24:02.206Z,100900.13
2022-12-04T05:26:30.277Z,100894.97
2022-12-04T05:28:58.352Z,100901.38
2022-12-04T05:31:28.001Z,100901.22
2022-12-04T05:33:57.129Z,100900.19
2022-12-04T05:36:25.233Z,100891.22
2022-12-04T05:38:53.551Z,100897.72
2022-12-04T05:41:21.679Z,100898.09
2022-12-04T05:43:49.850Z,100899.75
2022-12-04T05:46:18.150Z,100903.78
2022-12-04T05:48:47.602Z,100897.66
2022-12-04T05:51:15.740Z,100889.34
2022-12-04T05:53:43.929Z,100888.97
2022-12-04T05:56:12.107Z,100889.47
2022-12-04T05:58:40.358Z,100889.94
2022-12-04T06:01:09.794Z,100886.19
2022-12-04T06:03:39.536Z,100885.69
2022-12-04T06:06:19.498Z,100887.78
2022-12-04T06:08:50.704Z,100891.34
2022-12-04T06:11:20.101Z,100884.94
2022-12-04T06:13:48.759Z,100887.13
2022-12-04T06:16:18.319Z,100894.13
2022-12-04T06:18:49.778Z,100889.56
2022-12-04T06:21:19.884Z,100896.72
2022-12-04T06:23:49.070Z,100897.28
2022-12-04T06:26:17.406Z,100901.06
2022-12-04T06:28:45.761Z,100900.47
2022-12-04T06:31:15.759Z,100898.75
2022-12-04T06:33:44.222Z,100898.09
2022-12-04T06:36:13.051Z,100893.16
2022-12-04T06:38:43.071Z,100897.72
2022-12-04T06:41:12.061Z,100896.72
2022-12-04T06:43:40.586Z,100895.69
2022-12-04T06:46:09.612Z,100890.69
2022-12-04T06:48:38.149Z,100890.69
2022-12-04T06:51:07.570Z,100897.28
2022-12-04T06:53:36.419Z,100894.19
2022-12-04T06:56:07.513Z,100899.13
2022-12-04T06:58:36.426Z,100896.50
2022-12-04T07:01:07.940Z,100892.41
2022-12-04T07:03:36.355Z,100903.03
2022-12-04T07:06:11.460Z,100893.59
2022-12-04T07:08:39.761Z,100896.88
2022-12-04T07:11:09.321Z,100901.66
2022-12-04T07:13:37.559Z,100896.44
2022-12-04T07:16:07.055Z,100901.81
2022-12-04T07:18:35.994Z,100906.75
2022-12-04T07:21:05.956Z,100908.41
2022-12-04T07:23:34.056Z,100899.75
2022-12-04T07:26:04.966Z,100899.84
2022-12-04T07:28:34.626Z,100894.34
2022-12-04T07:31:04.570Z,100899.13
2022-12-04T07:33:32.691Z,100901.38
2022-12-04T07:36:01.629Z,100917.97
2022-12-04T07:38:30.231Z,100915.88
2022-12-04T07:40:58.915Z,100915.88
2022-12-04T07:43:27.480Z,100914.63
2022-12-04T07:45:57.221Z,100910.22
2022-12-04T07:48:30.237Z,100924.28
2022-12-04T07:51:05.470Z,100919.50
2022-12-04T07:53:34.572Z,100923.56
2022-12-04T07:56:02.839Z,100918.28
2022-12-04T07:58:30.991Z,100935.47
2022-12-04T08:01:07.524Z,100912.91
2022-12-04T08:03:35.868Z,100909.31
2022-12-04T08:06:04.565Z,100915.16
2022-12-04T08:08:33.169Z,100921.56
2022-12-04T08:11:01.745Z,100920.59
2022-12-04T08:13:30.071Z,100925.31
2022-12-04T08:16:01.706Z,100918.88
2022-12-04T08:18:31.222Z,100923.56
2022-12-04T08:21:04.098Z,100921.97
2022-12-04T08:23:32.558Z,100929.94
2022-12-04T08:26:01.139Z,100930.75
2022-12-04T08:28:29.999Z,100932.63
2022-12-04T08:31:03.476Z,100929.50
2022-12-04T08:33:33.652Z,100923.13
2022-12-04T08:36:02.093Z,100929.78
2022-12-04T08:38:30.314Z,100927.63
2022-12-04T08:41:00.620Z,100925.00
2022-12-04T08:43:28.721Z,100920.97
2022-12-04T08:45:57.800Z,100921.72
2022-12-04T08:48:26.263Z,100931.28
2022-12-04T08:50:55.675Z,100928.75
2022-12-04T08:53:24.289Z,100928.38
2022-12-04T08:55:52.427Z,100930.69
2022-12-04T08:58:20.760Z,100926.72
2022-12-04T09:00:49.019Z,100923.81
2022-12-04T09:03:18.298Z,100928.75
2022-12-04T09:05:46.656Z,100938.47
2022-12-04T09:08:16.678Z,100933.47
2022-12-04T09:10:45.141Z,100932.88
2022-12-04T09:13:13.176Z,100934.88
2022-12-04T09:15:41.397Z,100941.31
2022-12-04T09:18:09.905Z,100941.44
2022-12-04T09:20:38.369Z,100941.00
2022-12-04T09:23:06.781Z,100938.31
2022-12-04T09:25:37.512Z,100949.41
2022-12-04T09:28:05.937Z,100937.13
2022-12-04T09:30:34.002Z,100944.66
2022-12-04T09:33:02.037Z,100938.81
2022-12-04T09:35:30.720Z,100929.91
2022-12-04T09:37:59.179Z,100938.28
2022-12-04T09:40:36.842Z,100935.00
2022-12-04T09:43:27.348Z,100932.63
2022-12-04T09:45:57.110Z,100935.16
2022-12-04T09:48:27.299Z,100928.72
2022-12-04T09:50:55.928Z,100923.78
2022-12-04T09:53:27.775Z,100930.13
2022-12-04T09:55:59.727Z,100928.25
2022-12-04T09:58:33.619Z,100916.94
2022-12-04T10:01:04.035Z,100927.78
2022-12-04T10:03:32.600Z,100921.03
2022-12-04T10:06:04.171Z,100917.22
2022-12-04T10:08:35.165Z,100916.84
2022-12-04T10:11:07.314Z,100910.72
2022-12-04T10:13:45.949Z,100921.25
2022-12-04T10:16:18.941Z,100926.06
2022-12-04T10:18:54.510Z,100926.56
2022-12-04T10:21:31.135Z,100922.50
2022-12-04T10:24:16.209Z,100918.75
2022-12-04T10:26:45.801Z,100909.13
2022-12-04T10:29:17.779Z,100914.28
2022-12-04T10:31:47.493Z,100923.78
2022-12-04T10:34:17.671Z,100932.56
2022-12-04T10:36:50.059Z,100931.66
2022-12-04T10:39:21.865Z,100926.25
2022-12-04T10:41:53.338Z,100925.78
2022-12-04T10:44:23.501Z,100922.50
2022-12-04T10:46:54.258Z,100919.00
2022-12-04T10:49:25.479Z,100921.47
2022-12-04T10:51:54.614Z,100906.34
2022-12-04T10:54:26.353Z,100907.03
2022-12-04T10:56:55.372Z,100893.56
2022-12-04T10:59:25.549Z,100892.78
2022-12-04T11:02:04.759Z,100895.34
2022-12-04T11:04:35.953Z,100892.88
2022-12-04T11:07:04.938Z,100891.97
2022-12-04T11:09:33.368Z,100889.84
2022-12-04T11:12:09.589Z,100890.31
2022-12-04T11:14:42.768Z,100873.13
2022-12-04T11:17:16.287Z,100879.53
2022-12-04T11:19:44.465Z,100867.50
2022-12-04T11:22:14.468Z,100858.94
2022-12-04T11:24:43.283Z,100849.44
2022-12-04T11:27:19.973Z,100846.50
2022-12-04T11:29:50.103Z,100847.22
2022-12-04T11:32:21.091Z,100841.38
2022-12-04T11:34:51.736Z,100852.03
2022-12-04T11:37:21.414Z,100853.41
2022-12-04T11:39:50.101Z,100852.59
2022-12-04T11:42:19.448Z,100853.06
2022-12-04T11:44:52.605Z,100849.91
2022-12-04T11:47:23.079Z,100856.72
2022-12-04T11:50:11.315Z,100850.97
2022-12-04T11:52:45.874Z,100852.50
2022-12-04T11:55:16.914Z,100850.38
2022-12-04T11:57:48.580Z,100845.34
2022-12-04T12:00:20.127Z,100841.25
2022-12-04T12:02:57.554Z,100842.63
2022-12-04T12:05:35.787Z,100840.41
2022-12-04T12:08:09.051Z,100831.25
2022-12-04T12:13:36.638Z,100833.28
2022-12-04T12:16:11.836Z,100835.97
2022-12-04T12:18:56.604Z,100831.41
2022-12-04T12:21:39.017Z,100833.50
2022-12-04T12:24:16.523Z,100839.59
2022-12-04T12:26:47.300Z,100826.69
2022-12-04T12:29:21.554Z,100829.16
2022-12-04T12:32:05.282Z,100831.38
2022-12-04T12:34:37.259Z,100831.88
2022-12-04T12:37:09.044Z,100833.50
2022-12-04T12:39:40.197Z,100832.81
2022-12-04T12:42:14.872Z,100827.75
2022-12-04T12:44:46.417Z,100827.28
2022-12-04T12:47:18.876Z,100823.16
2022-12-04T12:49:49.237Z,100817.78
2022-12-04T12:52:21.060Z,100816.84
2022-12-04T12:54:52.923Z,100812.88
2022-12-04T12:57:25.518Z,100818.03
2022-12-04T12:59:56.541Z,100801.84
2022-12-04T13:02:29.419Z,100800.19
2022-12-04T13:04:59.809Z,100794.56
2022-12-04T13:07:30.187Z,100780.28
2022-12-04T13:10:01.738Z,100775.34
2022-12-04T13:12:30.562Z,100779.09
2022-12-04T13:14:58.824Z,100776.41
2022-12-04T13:17:32.346Z,100782.72
2022-12-04T13:20:09.534Z,100774.00
2022-12-04T13:22:45.400Z,100777.53
2022-12-04T13:25:23.151Z,100775.88
2022-12-04T13:27:56.846Z,100775.06
2022-12-04T13:30:28.065Z,100786.59
2022-12-04T13:33:05.505Z,100793.59
2022-12-04T13:35:45.989Z,100779.56
2022-12-04T13:38:19.558Z,100795.13
2022-12-04T13:40:52.699Z,100783.16
2022-12-04T13:43:26.858Z,100789.53
2022-12-04T13:45:56.661Z,100799.50
2022-12-04T13:48:33.937Z,100797.03
2022-12-04T13:51:03.205Z,100794.81
2022-12-04T13:53:32.216Z,100805.94
2022-12-04T13:56:06.041Z,100807.34
2022-12-04T13:58:37.460Z,100807.59
2022-12-04T14:01:11.288Z,100808.66
2022-12-04T14:03:47.121Z,100809.34
2022-12-04T14:06:23.271Z,100804.06
2022-12-04T14:08:56.170Z,100802.56
2022-12-04T14:11:24.873Z,100804.19
2022-12-04T14:13:54.456Z,100799.25
2022-12-04T14:16:24.020Z,100798.31
2022-12-04T14:18:54.528Z,100804.31
2022-12-04T14:21:23.258Z,100800.78
2022-12-04T14:23:52.382Z,100795.41
2022-12-04T14:26:37.370Z,100792.94
2022-12-04T14:29:29.821Z,100801.22
2022-12-04T14:32:00.134Z,100799.34
2022-12-04T14:34:31.723Z,100797.94
2022-12-04T14:37:01.776Z,100795.94
2022-12-04T14:39:31.004Z,100796.06
2022-12-04T14:42:06.080Z,100798.28
2022-12-04T14:44:34.376Z,100797.16
2022-12-04T14:47:12.026Z,100796.69
2022-12-04T14:49:51.978Z,100792.59
2022-12-04T14:52:24.965Z,100800.66
2022-12-04T14:55:00.250Z,100788.25
2022-12-04T14:57:36.143Z,100787.41
2022-12-04T15:00:05.601Z,100784.38
2022-12-04T15:02:35.673Z,100781.09
2022-12-04T15:05:09.477Z,100783.91
2022-12-04T15:07:38.255Z,100792.00
2022-12-04T15:10:35.697Z,100795.03
2022-12-04T15:13:04.077Z,100800.66
2022-12-04T15:15:32.165Z,100794.00
2022-12-04T15:18:01.617Z,100784.97
2022-12-04T15:20:38.650Z,100793.88
2022-12-04T15:23:07.516Z,100790.00
2022-12-04T15:25:38.074Z,100780.84
2022-12-04T15:28:11.958Z,100786.25
2022-12-04T15:30:42.270Z,100790.81
2022-12-04T15:33:17.782Z,100802.44
2022-12-04T15:35:52.527Z,100799.38
2022-12-04T15:38:21.202Z,100797.38
2022-12-04T15:40:53.390Z,100792.13
2022-12-04T15:43:28.881Z,100799.50
2022-12-04T15:45:57.548Z,100802.66
2022-12-04T15:48:26.614Z,100796.91
2022-12-04T15:51:00.510Z,100801.59
2022-12-04T15:53:30.969Z,100797.84
2022-12-04T15:56:00.829Z,100802.31
2022-12-04T15:58:30.395Z,100811.47
2022-12-04T16:00:59.884Z,100815.09
2022-12-04T16:03:30.753Z,100812.88
2022-12-04T16:06:15.912Z,100814.63
2022-12-04T16:08:45.301Z,100811.91
2022-12-04T16:11:30.044Z,100814.03
2022-12-04T16:14:06.285Z,100812.38
2022-12-04T16:16:35.002Z,100808.63
2022-12-04T16:19:06.517Z,100819.78
2022-12-04T16:21:36.480Z,100812.63
2022-12-04T16:24:05.176Z,100820.59
2022-12-04T16:26:33.479Z,100820.72
2022-12-04T16:29:01.552Z,100818.38
2022-12-04T16:31:30.249Z,100827.50
2022-12-04T16:33:58.578Z,100810.63
2022-12-04T16:36:26.687Z,100815.81
2022-12-04T16:38:56.129Z,100818.50
2022-12-04T16:41:24.697Z,100821.53
2022-12-04T16:43:54.209Z,100820.13
2022-12-04T16:46:24.321Z,100825.16
2022-12-04T16:48:52.787Z,100830.66
2022-12-04T16:51:22.233Z,100828.56
2022-12-04T16:53:50.978Z,100837.38
2022-12-04T16:56:20.997Z,100838.88
2022-12-04T16:58:49.125Z,100842.88
2022-12-04T17:01:21.417Z,100844.50
2022-12-04T17:03:50.548Z,100843.91
2022-12-04T17:06:18.877Z,100844.75
2022-12-04T17:08:47.093Z,100842.16
2022-12-04T17:11:16.027Z,100841.44
2022-12-04T17:13:45.471Z,100839.78
2022-12-04T17:16:15.356Z,100848.47
2022-12-04T17:18:43.569Z,100839.44
2022-12-04T17:21:13.185Z,100848.69
2022-12-04T17:23:41.425Z,100852.09
2022-12-04T17:26:10.984Z,100853.72
2022-12-04T17:28:39.631Z,100853.50
2022-12-04T17:31:14.058Z,100857.03
2022-12-04T17:33:43.548Z,100866.97
2022-12-04T17:36:12.435Z,100862.41
2022-12-04T17:38:43.764Z,100856.88
2022-12-04T17:41:13.593Z,100861.44
2022-12-04T17:43:42.240Z,100868.63
2022-12-04T17:46:11.154Z,100869.66
2022-12-04T17:48:41.042Z,100863.22
2022-12-04T17:51:10.753Z,100866.28
2022-12-04T17:53:39.514Z,100865.09
2022-12-04T17:56:09.258Z,100870.63
2022-12-04T17:58:37.786Z,100868.41
2022-12-04T18:01:06.873Z,100875.19
2022-12-04T18:03:35.659Z,100870.50
2022-12-04T18:06:12.944Z,100865.22
2022-12-04T18:08:50.070Z,100864.50
2022-12-04T18:11:22.383Z,100860.19
2022-12-04T18:13:54.253Z,100864.97
2022-12-04T18:16:25.684Z,100862.28
2022-12-04T18:18:53.925Z,100863.91
2022-12-04T18:21:23.619Z,100862.03
2022-12-04T18:23:53.849Z,100853.50
2022-12-04T18:26:22.787Z,100843.41
2022-12-04T18:28:51.117Z,100848.34
2022-12-04T18:31:20.273Z,100844.81
2022-12-04T18:33:48.829Z,100846.78
2022-12-04T18:36:17.689Z,100843.88
2022-12-04T18:38:47.776Z,100843.03
2022-12-04T18:41:16.031Z,100845.00
2022-12-04T18:43:45.318Z,100836.94
2022-12-04T18:46:14.773Z,100843.38
2022-12-04T18:48:43.508Z,100846.53
2022-12-04T18:51:15.336Z,100847.56
2022-12-04T18:53:43.661Z,100836.94
2022-12-04T18:56:24.940Z,100842.31
2022-12-04T18:58:57.550Z,100842.78
2022-12-04T19:01:28.832Z,100847.25
2022-12-04T19:04:10.268Z,100846.78
2022-12-04T19:06:40.102Z,100847.78
2022-12-04T19:09:09.331Z,100855.91
2022-12-04T19:11:39.221Z,100853.81
2022-12-04T19:14:53.575Z,100860.03
2022-12-04T19:17:35.549Z,100854.59
2022-12-04T19:20:08.215Z,100849.22
2022-12-04T19:22:38.433Z,100862.22
2022-12-04T19:25:13.897Z,100850.91
2022-12-04T19:27:56.394Z,100852.19
2022-12-04T19:30:26.433Z,100856.50
2022-12-04T19:32:54.521Z,100850.06
2022-12-04T19:35:22.642Z,100845.75
2022-12-04T19:37:52.832Z,100850.16
2022-12-04T19:40:21.400Z,100842.34
2022-12-04T19:42:51.078Z,100851.25
2022-12-04T19:45:19.386Z,100847.53
2022-12-04T19:47:49.575Z,100850.81
2022-12-04T19:50:17.773Z,100865.88
2022-12-04T19:52:45.897Z,100861.09
2022-12-04T19:55:14.097Z,100858.06
2022-12-04T19:57:42.364Z,100859.81
2022-12-04T20:00:12.292Z,100864.59
2022-12-04T20:02:40.506Z,100862.94
2022-12-04T20:05:08.975Z,100853.22
2022-12-04T20:07:37.112Z,100855.47
2022-12-04T20:10:06.034Z,100866.59
2022-12-04T20:12:34.125Z,100869.16
2022-12-04T20:15:02.238Z,100863.22
2022-12-04T20:17:32.136Z,100870.94
2022-12-04T20:20:00.317Z,100868.63
2022-12-04T20:22:28.603Z,100862.88
2022-12-04T20:24:56.706Z,100869.81
2022-12-04T20:27:24.787Z,100873.06
2022-12-04T20:29:53.422Z,100869.31
2022-12-04T20:32:21.716Z,100869.44
2022-12-04T20:34:51.401Z,100865.47
2022-12-04T20:37:19.501Z,100855.38
2022-12-04T20:39:51.587Z,100870.84
2022-12-04T20:42:19.978Z,100854.31
2022-12-04T20:44:48.298Z,100856.56
2022-12-04T20:47:17.153Z,100850.25
2022-12-04T20:49:47.638Z,100857.72
2022-12-04T20:52:19.372Z,100852.69
2022-12-04T20:54:47.702Z,100859.94
2022-12-04T20:57:15.799Z,100859.72
2022-12-04T20:59:43.902Z,100854.53
2022-12-04T21:02:12.542Z,100853.72
2022-12-04T21:04:41.172Z,100852.22
2022-12-04T21:07:09.675Z,100850.34
2022-12-04T21:09:46.705Z,100846.59
2022-12-04T21:12:39.888Z,100842.25
2022-12-04T21:15:38.664Z,100841.06
2022-12-04T21:18:09.762Z,100834.53
2022-12-04T21:20:46.786Z,100842.16
2022-12-04T21:23:17.214Z,100836.78
2022-12-04T21:25:46.992Z,100837.69
2022-12-04T21:28:15.137Z,100840.53
2022-12-04T21:30:44.066Z,100835.34
2022-12-04T21:33:16.368Z,100842.03
2022-12-04T21:35:45.162Z,100837.78
2022-12-04T21:38:17.144Z,100839.38
2022-12-04T21:40:50.476Z,100833.81
2022-12-04T21:43:18.864Z,100833.94
2022-12-04T21:45:56.542Z,100834.66
2022-12-04T21:48:25.073Z,100832.91
2022-12-04T21:50:53.347Z,100828.94
2022-12-04T21:53:22.009Z,100833.28
2022-12-04T21:55:52.324Z,100843.94
2022-12-04T21:58:21.211Z,100832.91
2022-12-04T22:00:49.641Z,100835.84
2022-12-04T22:03:19.049Z,100836.31
2022-12-04T22:05:47.930Z,100839.38
2022-12-04T22:08:16.117Z,100844.25
2022-12-04T22:10:45.598Z,100844.25
2022-12-04T22:13:17.662Z,100850.84
2022-12-04T22:15:48.728Z,100850.97
2022-12-04T22:18:17.133Z,100851.66
2022-12-04T22:20:45.395Z,100848.28
2022-12-04T22:23:13.554Z,100851.44
2022-12-04T22:25:41.781Z,100854.94
2022-12-04T22:28:10.108Z,100855.31
2022-12-04T22:30:39.617Z,100853.78
2022-12-04T22:33:07.709Z,100859.78
2022-12-04T22:35:36.084Z,100861.50
2022-12-04T22:38:04.275Z,100864.22
2022-12-04T22:40:32.603Z,100864.91
2022-12-04T22:43:00.797Z,100858.34
2022-12-04T22:45:28.902Z,100866.09
2022-12-04T22:47:58.396Z,100860.34
2022-12-04T22:50:26.542Z,100870.88
2022-12-04T22:52:54.799Z,100874.88
2022-12-04T22:55:22.881Z,100868.66
2022-12-04T22:57:51.405Z,100869.84
2022-12-04T23:00:19.841Z,100865.50
2022-12-04T23:03:01.060Z,100873.94
2022-12-04T23:05:30.084Z,100877.69
2022-12-04T23:07:58.654Z,100877.59
2022-12-04T23:10:27.141Z,100873.03
2022-12-04T23:12:55.495Z,100873.34
2022-12-04T23:15:23.768Z,100881.91
2022-12-04T23:17:51.911Z,100880.75
2022-12-04T23:20:21.400Z,100879.22
2022-12-04T23:22:54.582Z,100873.81
2022-12-04T23:25:22.933Z,100873.34
2022-12-04T23:27:51.620Z,100873.34
2022-12-04T23:30:26.096Z,100863.16
2022-12-04T23:32:55.802Z,100869.03
2022-12-04T23:35:25.364Z,100870.19
2022-12-04T23:37:53.731Z,100871.38
2022-12-04T23:40:21.990Z,100865.72
2022-12-04T23:42:57.140Z,100865.84
2022-12-04T23:45:51.423Z,100867.72
2022-12-04T23:48:31.209Z,100876.16
2022-12-04T23:51:31.955Z,100869.84
2022-12-04T23:54:34.957Z,100875.38
